sensor_id;sensor_type;location;lat;lon;timestamp;temperature;humidity
18934;DHT22;9599;53.706;10.384;2024-01-27T00:01:36;6.10;99.90
18934;DHT22;9599;53.706;10.384;2024-01-27T00:04:04;6.10;99.90
18934;DHT22;9599;53.706;10.384;2024-01-27T00:06:32;6.10;99.90
18934;DHT22;9599;53.706;10.384;2024-01-27T00:09:02;6.10;99.90
18934;DHT22;9599;53.706;10.384;2024-01-27T00:11:32;6.10;99.90
18934;DHT22;9599;53.706;10.384;2024-01-27T00:14:00;6.10;99.90
18934;DHT22;9599;53.706;10.384;2024-01-27T00:16:28;6.00;99.90
18934;DHT22;9599;53.706;10.384;2024-01-27T00:18:56;6.00;99.90
18934;DHT22;9599;53.706;10.384;2024-01-27T00:21:24;6.00;99.90
18934;DHT22;9599;53.706;10.384;2024-01-27T00:23:52;6.00;99.90
18934;DHT22;9599;53.706;10.384;2024-01-27T00:26:22;6.00;99.90
18934;DHT22;9599;53.706;10.384;2024-01-27T00:28:50;6.10;99.90
18934;DHT22;9599;53.706;10.384;2024-01-27T00:31:17;6.00;99.90
18934;DHT22;9599;53.706;10.384;2024-01-27T00:33:45;6.00;99.90
18934;DHT22;9599;53.706;10.384;2024-01-27T00:36:13;6.10;99.90
18934;DHT22;9599;53.706;10.384;2024-01-27T00:38:41;6.10;99.90
18934;DHT22;9599;53.706;10.384;2024-01-27T00:41:15;6.10;99.90
18934;DHT22;9599;53.706;10.384;2024-01-27T00:43:45;6.10;99.90
18934;DHT22;9599;53.706;10.384;2024-01-27T00:46:15;6.10;99.90
18934;DHT22;9599;53.706;10.384;2024-01-27T00:48:43;6.10;99.90
18934;DHT22;9599;53.706;10.384;2024-01-27T00:51:11;6.10;99.90
18934;DHT22;9599;53.706;10.384;2024-01-27T00:53:39;6.10;99.90
18934;DHT22;9599;53.706;10.384;2024-01-27T00:56:08;6.10;99.90
18934;DHT22;9599;53.706;10.384;2024-01-27T00:58:36;6.10;99.90
18934;DHT22;9599;53.706;10.384;2024-01-27T01:01:05;6.10;99.90
18934;DHT22;9599;53.706;10.384;2024-01-27T01:03:33;6.10;99.90
18934;DHT22;9599;53.706;10.384;2024-01-27T01:06:02;6.10;99.90
18934;DHT22;9599;53.706;10.384;2024-01-27T01:08:31;6.10;99.90
18934;DHT22;9599;53.706;10.384;2024-01-27T01:11:01;6.20;99.90
18934;DHT22;9599;53.706;10.384;2024-01-27T01:13:29;6.20;99.90
18934;DHT22;9599;53.706;10.384;2024-01-27T01:15:57;6.10;99.90
18934;DHT22;9599;53.706;10.384;2024-01-27T01:18:26;6.10;99.90
18934;DHT22;9599;53.706;10.384;2024-01-27T01:20:56;6.10;99.90
18934;DHT22;9599;53.706;10.384;2024-01-27T01:23:24;6.10;99.90
18934;DHT22;9599;53.706;10.384;2024-01-27T01:25:53;6.10;99.90
18934;DHT22;9599;53.706;10.384;2024-01-27T01:28:21;6.10;99.90
18934;DHT22;9599;53.706;10.384;2024-01-27T01:30:49;6.10;99.90
18934;DHT22;9599;53.706;10.384;2024-01-27T01:33:17;6.10;99.90
18934;DHT22;9599;53.706;10.384;2024-01-27T01:35:47;6.10;99.90
18934;DHT22;9599;53.706;10.384;2024-01-27T01:38:15;6.10;99.90
18934;DHT22;9599;53.706;10.384;2024-01-27T01:40:43;6.10;99.90
18934;DHT22;9599;53.706;10.384;2024-01-27T01:43:11;6.20;99.90
18934;DHT22;9599;53.706;10.384;2024-01-27T01:45:40;6.20;99.90
18934;DHT22;9599;53.706;10.384;2024-01-27T01:48:07;6.20;99.90
18934;DHT22;9599;53.706;10.384;2024-01-27T01:50:36;6.10;99.90
18934;DHT22;9599;53.706;10.384;2024-01-27T01:53:06;6.20;99.90
18934;DHT22;9599;53.706;10.384;2024-01-27T01:55:34;6.20;99.90
18934;DHT22;9599;53.706;10.384;2024-01-27T01:58:02;6.20;99.90
18934;DHT22;9599;53.706;10.384;2024-01-27T02:00:31;6.20;99.90
18934;DHT22;9599;53.706;10.384;2024-01-27T02:02:59;6.20;99.90
18934;DHT22;9599;53.706;10.384;2024-01-27T02:05:27;6.10;99.90
18934;DHT22;9599;53.706;10.384;2024-01-27T02:07:55;6.20;99.90
18934;DHT22;9599;53.706;10.384;2024-01-27T02:10:28;6.20;99.90
18934;DHT22;9599;53.706;10.384;2024-01-27T02:13:03;6.20;99.90
18934;DHT22;9599;53.706;10.384;2024-01-27T02:15:32;6.20;99.90
18934;DHT22;9599;53.706;10.384;2024-01-27T02:18:00;6.30;99.90
18934;DHT22;9599;53.706;10.384;2024-01-27T02:20:28;6.20;99.90
18934;DHT22;9599;53.706;10.384;2024-01-27T02:22:56;6.20;99.90
18934;DHT22;9599;53.706;10.384;2024-01-27T02:25:25;6.20;99.90
18934;DHT22;9599;53.706;10.384;2024-01-27T02:27:53;6.30;99.90
18934;DHT22;9599;53.706;10.384;2024-01-27T02:30:21;6.30;99.90
18934;DHT22;9599;53.706;10.384;2024-01-27T02:32:49;6.20;99.90
18934;DHT22;9599;53.706;10.384;2024-01-27T02:35:17;6.20;99.90
18934;DHT22;9599;53.706;10.384;2024-01-27T02:37:45;6.20;99.90
18934;DHT22;9599;53.706;10.384;2024-01-27T02:40:13;6.20;99.90
18934;DHT22;9599;53.706;10.384;2024-01-27T02:42:43;6.20;99.90
18934;DHT22;9599;53.706;10.384;2024-01-27T02:45:12;6.10;99.90
18934;DHT22;9599;53.706;10.384;2024-01-27T02:47:40;6.10;99.90
18934;DHT22;9599;53.706;10.384;2024-01-27T02:50:09;6.10;99.90
18934;DHT22;9599;53.706;10.384;2024-01-27T02:52:37;6.00;99.90
18934;DHT22;9599;53.706;10.384;2024-01-27T02:55:06;6.00;99.90
18934;DHT22;9599;53.706;10.384;2024-01-27T02:57:34;6.00;99.90
18934;DHT22;9599;53.706;10.384;2024-01-27T03:00:04;6.00;99.90
18934;DHT22;9599;53.706;10.384;2024-01-27T03:02:32;5.90;99.90
18934;DHT22;9599;53.706;10.384;2024-01-27T03:05:00;5.90;99.90
18934;DHT22;9599;53.706;10.384;2024-01-27T03:07:31;5.80;99.90
18934;DHT22;9599;53.706;10.384;2024-01-27T03:09:59;5.90;99.90
18934;DHT22;9599;53.706;10.384;2024-01-27T03:12:27;5.90;99.90
18934;DHT22;9599;53.706;10.384;2024-01-27T03:14:55;5.90;99.90
18934;DHT22;9599;53.706;10.384;2024-01-27T03:17:24;5.90;99.90
18934;DHT22;9599;53.706;10.384;2024-01-27T03:19:52;5.90;99.90
18934;DHT22;9599;53.706;10.384;2024-01-27T03:22:20;5.90;99.90
18934;DHT22;9599;53.706;10.384;2024-01-27T03:24:48;5.90;99.90
18934;DHT22;9599;53.706;10.384;2024-01-27T03:27:18;6.00;99.90
18934;DHT22;9599;53.706;10.384;2024-01-27T03:29:46;6.10;99.90
18934;DHT22;9599;53.706;10.384;2024-01-27T03:32:14;6.10;99.90
18934;DHT22;9599;53.706;10.384;2024-01-27T03:34:45;6.10;99.90
18934;DHT22;9599;53.706;10.384;2024-01-27T03:37:13;6.10;99.90
18934;DHT22;9599;53.706;10.384;2024-01-27T03:39:42;6.20;99.90
18934;DHT22;9599;53.706;10.384;2024-01-27T03:42:11;6.20;99.90
18934;DHT22;9599;53.706;10.384;2024-01-27T03:44:39;6.20;99.90
18934;DHT22;9599;53.706;10.384;2024-01-27T03:47:07;6.30;99.90
18934;DHT22;9599;53.706;10.384;2024-01-27T03:49:35;6.30;99.90
18934;DHT22;9599;53.706;10.384;2024-01-27T03:52:05;6.20;99.90
18934;DHT22;9599;53.706;10.384;2024-01-27T03:54:33;6.20;99.90
18934;DHT22;9599;53.706;10.384;2024-01-27T03:57:01;6.30;99.90
18934;DHT22;9599;53.706;10.384;2024-01-27T03:59:29;6.20;99.90
18934;DHT22;9599;53.706;10.384;2024-01-27T04:01:57;6.30;99.90
18934;DHT22;9599;53.706;10.384;2024-01-27T04:04:25;6.20;99.90
18934;DHT22;9599;53.706;10.384;2024-01-27T04:06:53;6.20;99.90
18934;DHT22;9599;53.706;10.384;2024-01-27T04:09:22;6.20;99.90
18934;DHT22;9599;53.706;10.384;2024-01-27T04:11:51;6.20;99.90
18934;DHT22;9599;53.706;10.384;2024-01-27T04:14:19;6.20;99.90
18934;DHT22;9599;53.706;10.384;2024-01-27T04:16:47;6.20;99.90
18934;DHT22;9599;53.706;10.384;2024-01-27T04:19:15;6.20;99.90
18934;DHT22;9599;53.706;10.384;2024-01-27T04:21:43;6.20;99.90
18934;DHT22;9599;53.706;10.384;2024-01-27T04:24:11;6.20;99.90
18934;DHT22;9599;53.706;10.384;2024-01-27T04:26:41;6.10;99.90
18934;DHT22;9599;53.706;10.384;2024-01-27T04:29:08;6.10;99.90
18934;DHT22;9599;53.706;10.384;2024-01-27T04:31:41;6.10;99.90
18934;DHT22;9599;53.706;10.384;2024-01-27T04:34:09;6.10;99.90
18934;DHT22;9599;53.706;10.384;2024-01-27T04:36:38;6.10;99.90
18934;DHT22;9599;53.706;10.384;2024-01-27T04:39:06;6.10;99.90
18934;DHT22;9599;53.706;10.384;2024-01-27T04:41:34;6.10;99.90
18934;DHT22;9599;53.706;10.384;2024-01-27T04:44:04;6.10;99.90
18934;DHT22;9599;53.706;10.384;2024-01-27T04:46:32;6.10;99.90
18934;DHT22;9599;53.706;10.384;2024-01-27T04:48:59;6.10;99.90
18934;DHT22;9599;53.706;10.384;2024-01-27T04:51:28;6.10;99.90
18934;DHT22;9599;53.706;10.384;2024-01-27T04:53:56;6.10;99.90
18934;DHT22;9599;53.706;10.384;2024-01-27T04:56:24;6.10;99.90
18934;DHT22;9599;53.706;10.384;2024-01-27T04:58:52;6.00;99.90
18934;DHT22;9599;53.706;10.384;2024-01-27T05:01:21;6.00;99.90
18934;DHT22;9599;53.706;10.384;2024-01-27T05:03:49;6.00;99.90
18934;DHT22;9599;53.706;10.384;2024-01-27T05:06:18;6.00;99.90
18934;DHT22;9599;53.706;10.384;2024-01-27T05:08:46;6.00;99.90
18934;DHT22;9599;53.706;10.384;2024-01-27T05:11:15;6.10;99.90
18934;DHT22;9599;53.706;10.384;2024-01-27T05:13:44;6.10;99.90
18934;DHT22;9599;53.706;10.384;2024-01-27T05:16:12;6.10;99.90
18934;DHT22;9599;53.706;10.384;2024-01-27T05:18:41;6.10;99.90
18934;DHT22;9599;53.706;10.384;2024-01-27T05:21:10;6.10;99.90
18934;DHT22;9599;53.706;10.384;2024-01-27T05:23:38;6.10;99.90
18934;DHT22;9599;53.706;10.384;2024-01-27T05:26:06;6.10;99.90
18934;DHT22;9599;53.706;10.384;2024-01-27T05:28:35;6.10;99.90
18934;DHT22;9599;53.706;10.384;2024-01-27T05:31:03;6.10;99.90
18934;DHT22;9599;53.706;10.384;2024-01-27T05:33:31;6.10;99.90
18934;DHT22;9599;53.706;10.384;2024-01-27T05:36:01;6.10;99.90
18934;DHT22;9599;53.706;10.384;2024-01-27T05:38:32;6.10;99.90
18934;DHT22;9599;53.706;10.384;2024-01-27T05:41:00;6.10;99.90
18934;DHT22;9599;53.706;10.384;2024-01-27T05:43:29;6.10;99.90
18934;DHT22;9599;53.706;10.384;2024-01-27T05:45:57;6.10;99.90
18934;DHT22;9599;53.706;10.384;2024-01-27T05:48:26;6.00;99.90
18934;DHT22;9599;53.706;10.384;2024-01-27T05:50:57;6.00;99.90
18934;DHT22;9599;53.706;10.384;2024-01-27T05:53:28;6.00;99.90
18934;DHT22;9599;53.706;10.384;2024-01-27T05:55:56;6.00;99.90
18934;DHT22;9599;53.706;10.384;2024-01-27T05:58:24;6.00;99.90
18934;DHT22;9599;53.706;10.384;2024-01-27T06:00:52;6.00;99.90
18934;DHT22;9599;53.706;10.384;2024-01-27T06:03:20;5.90;99.90
18934;DHT22;9599;53.706;10.384;2024-01-27T06:05:48;5.90;99.90
18934;DHT22;9599;53.706;10.384;2024-01-27T06:08:16;5.90;99.90
18934;DHT22;9599;53.706;10.384;2024-01-27T06:10:46;5.90;99.90
18934;DHT22;9599;53.706;10.384;2024-01-27T06:13:14;5.90;99.90
18934;DHT22;9599;53.706;10.384;2024-01-27T06:15:42;5.90;99.90
18934;DHT22;9599;53.706;10.384;2024-01-27T06:18:11;5.90;99.90
18934;DHT22;9599;53.706;10.384;2024-01-27T06:20:39;5.80;99.90
18934;DHT22;9599;53.706;10.384;2024-01-27T06:23:07;5.80;99.90
18934;DHT22;9599;53.706;10.384;2024-01-27T06:25:36;5.90;99.90
18934;DHT22;9599;53.706;10.384;2024-01-27T06:28:06;5.90;99.90
18934;DHT22;9599;53.706;10.384;2024-01-27T06:30:34;5.90;99.90
18934;DHT22;9599;53.706;10.384;2024-01-27T06:33:02;5.90;99.90
18934;DHT22;9599;53.706;10.384;2024-01-27T06:35:30;5.90;99.90
18934;DHT22;9599;53.706;10.384;2024-01-27T06:37:58;5.90;99.90
18934;DHT22;9599;53.706;10.384;2024-01-27T06:40:26;5.80;99.90
18934;DHT22;9599;53.706;10.384;2024-01-27T06:42:54;5.80;99.90
18934;DHT22;9599;53.706;10.384;2024-01-27T06:45:23;5.80;99.90
18934;DHT22;9599;53.706;10.384;2024-01-27T06:47:51;5.80;99.90
18934;DHT22;9599;53.706;10.384;2024-01-27T06:50:20;5.80;99.90
18934;DHT22;9599;53.706;10.384;2024-01-27T06:52:47;5.80;99.90
18934;DHT22;9599;53.706;10.384;2024-01-27T06:55:15;5.80;99.90
18934;DHT22;9599;53.706;10.384;2024-01-27T06:57:43;5.80;99.90
18934;DHT22;9599;53.706;10.384;2024-01-27T07:00:12;5.80;99.90
18934;DHT22;9599;53.706;10.384;2024-01-27T07:02:44;5.70;99.90
18934;DHT22;9599;53.706;10.384;2024-01-27T07:05:13;5.80;99.90
18934;DHT22;9599;53.706;10.384;2024-01-27T07:07:42;5.70;99.90
18934;DHT22;9599;53.706;10.384;2024-01-27T07:10:11;5.70;99.90
18934;DHT22;9599;53.706;10.384;2024-01-27T07:12:39;5.70;99.90
18934;DHT22;9599;53.706;10.384;2024-01-27T07:15:08;5.70;99.90
18934;DHT22;9599;53.706;10.384;2024-01-27T07:17:36;5.70;99.90
18934;DHT22;9599;53.706;10.384;2024-01-27T07:20:08;5.70;99.90
18934;DHT22;9599;53.706;10.384;2024-01-27T07:22:36;5.70;99.90
18934;DHT22;9599;53.706;10.384;2024-01-27T07:25:05;5.70;99.90
18934;DHT22;9599;53.706;10.384;2024-01-27T07:27:33;5.70;99.90
18934;DHT22;9599;53.706;10.384;2024-01-27T07:30:01;5.70;99.90
18934;DHT22;9599;53.706;10.384;2024-01-27T07:32:30;5.70;99.90
18934;DHT22;9599;53.706;10.384;2024-01-27T07:34:57;5.70;99.90
18934;DHT22;9599;53.706;10.384;2024-01-27T07:37:27;5.70;99.90
18934;DHT22;9599;53.706;10.384;2024-01-27T07:39:55;5.70;99.90
18934;DHT22;9599;53.706;10.384;2024-01-27T07:42:23;5.60;99.90
18934;DHT22;9599;53.706;10.384;2024-01-27T07:44:51;5.60;99.90
18934;DHT22;9599;53.706;10.384;2024-01-27T07:47:19;5.60;99.90
18934;DHT22;9599;53.706;10.384;2024-01-27T07:49:47;5.50;99.90
18934;DHT22;9599;53.706;10.384;2024-01-27T07:52:16;5.40;99.90
18934;DHT22;9599;53.706;10.384;2024-01-27T07:54:46;5.40;99.90
18934;DHT22;9599;53.706;10.384;2024-01-27T07:57:14;5.30;99.90
18934;DHT22;9599;53.706;10.384;2024-01-27T07:59:42;5.30;99.90
18934;DHT22;9599;53.706;10.384;2024-01-27T08:02:10;5.30;99.90
18934;DHT22;9599;53.706;10.384;2024-01-27T08:04:39;5.30;99.90
18934;DHT22;9599;53.706;10.384;2024-01-27T08:07:07;5.30;99.90
18934;DHT22;9599;53.706;10.384;2024-01-27T08:09:37;5.30;99.90
18934;DHT22;9599;53.706;10.384;2024-01-27T08:12:07;5.30;99.90
18934;DHT22;9599;53.706;10.384;2024-01-27T08:14:36;5.30;99.90
18934;DHT22;9599;53.706;10.384;2024-01-27T08:17:04;5.30;99.90
18934;DHT22;9599;53.706;10.384;2024-01-27T08:19:32;5.30;99.90
18934;DHT22;9599;53.706;10.384;2024-01-27T08:22:01;5.30;99.90
18934;DHT22;9599;53.706;10.384;2024-01-27T08:24:29;5.30;99.90
18934;DHT22;9599;53.706;10.384;2024-01-27T08:26:58;5.30;99.90
18934;DHT22;9599;53.706;10.384;2024-01-27T08:29:28;5.40;99.90
18934;DHT22;9599;53.706;10.384;2024-01-27T08:31:56;5.40;99.90
18934;DHT22;9599;53.706;10.384;2024-01-27T08:34:25;5.40;99.90
18934;DHT22;9599;53.706;10.384;2024-01-27T08:36:53;5.40;99.90
18934;DHT22;9599;53.706;10.384;2024-01-27T08:39:25;5.30;99.90
18934;DHT22;9599;53.706;10.384;2024-01-27T08:41:53;5.40;99.90
18934;DHT22;9599;53.706;10.384;2024-01-27T08:44:21;5.40;99.90
18934;DHT22;9599;53.706;10.384;2024-01-27T08:46:51;5.40;99.90
18934;DHT22;9599;53.706;10.384;2024-01-27T08:49:19;5.50;99.90
18934;DHT22;9599;53.706;10.384;2024-01-27T08:51:47;5.40;99.90
18934;DHT22;9599;53.706;10.384;2024-01-27T08:54:15;5.50;99.90
18934;DHT22;9599;53.706;10.384;2024-01-27T08:56:43;5.60;99.90
18934;DHT22;9599;53.706;10.384;2024-01-27T08:59:12;5.60;99.90
18934;DHT22;9599;53.706;10.384;2024-01-27T09:01:40;5.60;99.90
18934;DHT22;9599;53.706;10.384;2024-01-27T09:04:09;5.70;99.90
18934;DHT22;9599;53.706;10.384;2024-01-27T09:06:37;5.70;99.90
18934;DHT22;9599;53.706;10.384;2024-01-27T09:09:05;5.70;99.90
18934;DHT22;9599;53.706;10.384;2024-01-27T09:11:34;5.70;99.90
18934;DHT22;9599;53.706;10.384;2024-01-27T09:14:02;5.70;99.90
18934;DHT22;9599;53.706;10.384;2024-01-27T09:16:31;5.80;99.90
18934;DHT22;9599;53.706;10.384;2024-01-27T09:18:59;5.70;99.90
18934;DHT22;9599;53.706;10.384;2024-01-27T09:21:29;5.80;99.90
18934;DHT22;9599;53.706;10.384;2024-01-27T09:24:00;5.80;99.90
18934;DHT22;9599;53.706;10.384;2024-01-27T09:26:29;5.90;99.90
18934;DHT22;9599;53.706;10.384;2024-01-27T09:28:57;6.00;99.90
18934;DHT22;9599;53.706;10.384;2024-01-27T09:31:25;6.00;99.90
18934;DHT22;9599;53.706;10.384;2024-01-27T09:33:54;6.00;99.90
18934;DHT22;9599;53.706;10.384;2024-01-27T09:36:23;6.10;99.90
18934;DHT22;9599;53.706;10.384;2024-01-27T09:38:53;6.10;99.90
18934;DHT22;9599;53.706;10.384;2024-01-27T09:41:21;6.10;99.90
18934;DHT22;9599;53.706;10.384;2024-01-27T09:43:49;6.10;99.90
18934;DHT22;9599;53.706;10.384;2024-01-27T09:46:18;6.10;99.90
18934;DHT22;9599;53.706;10.384;2024-01-27T09:48:46;6.20;99.90
18934;DHT22;9599;53.706;10.384;2024-01-27T09:51:15;6.20;99.90
18934;DHT22;9599;53.706;10.384;2024-01-27T09:53:43;6.20;99.90
18934;DHT22;9599;53.706;10.384;2024-01-27T09:56:13;6.20;99.90
18934;DHT22;9599;53.706;10.384;2024-01-27T09:58:45;6.20;99.90
18934;DHT22;9599;53.706;10.384;2024-01-27T10:01:16;6.20;99.90
18934;DHT22;9599;53.706;10.384;2024-01-27T10:03:45;6.20;99.90
18934;DHT22;9599;53.706;10.384;2024-01-27T10:06:13;6.30;99.90
18934;DHT22;9599;53.706;10.384;2024-01-27T10:08:43;6.20;99.90
18934;DHT22;9599;53.706;10.384;2024-01-27T10:11:15;6.30;99.90
18934;DHT22;9599;53.706;10.384;2024-01-27T10:13:45;6.30;99.90
18934;DHT22;9599;53.706;10.384;2024-01-27T10:16:24;6.30;99.90
18934;DHT22;9599;53.706;10.384;2024-01-27T10:18:59;6.40;99.90
18934;DHT22;9599;53.706;10.384;2024-01-27T10:21:29;6.50;99.90
18934;DHT22;9599;53.706;10.384;2024-01-27T10:23:57;6.50;99.90
18934;DHT22;9599;53.706;10.384;2024-01-27T10:26:30;6.60;99.90
18934;DHT22;9599;53.706;10.384;2024-01-27T10:28:58;6.50;99.90
18934;DHT22;9599;53.706;10.384;2024-01-27T10:31:27;6.50;99.90
18934;DHT22;9599;53.706;10.384;2024-01-27T10:33:56;6.60;99.90
18934;DHT22;9599;53.706;10.384;2024-01-27T10:36:25;6.60;99.90
18934;DHT22;9599;53.706;10.384;2024-01-27T10:38:54;6.70;99.90
18934;DHT22;9599;53.706;10.384;2024-01-27T10:41:24;6.80;99.90
18934;DHT22;9599;53.706;10.384;2024-01-27T10:43:56;6.80;99.90
18934;DHT22;9599;53.706;10.384;2024-01-27T10:46:28;6.90;99.90
18934;DHT22;9599;53.706;10.384;2024-01-27T10:48:57;7.00;99.90
18934;DHT22;9599;53.706;10.384;2024-01-27T10:51:30;7.00;99.90
18934;DHT22;9599;53.706;10.384;2024-01-27T10:54:02;7.00;99.90
18934;DHT22;9599;53.706;10.384;2024-01-27T10:56:31;7.00;99.90
18934;DHT22;9599;53.706;10.384;2024-01-27T10:59:01;6.90;99.90
18934;DHT22;9599;53.706;10.384;2024-01-27T11:01:32;7.00;99.90
18934;DHT22;9599;53.706;10.384;2024-01-27T11:04:03;7.10;99.90
18934;DHT22;9599;53.706;10.384;2024-01-27T11:06:33;7.20;99.90
18934;DHT22;9599;53.706;10.384;2024-01-27T11:09:02;7.20;99.90
18934;DHT22;9599;53.706;10.384;2024-01-27T11:11:31;7.20;99.90
18934;DHT22;9599;53.706;10.384;2024-01-27T11:14:01;7.30;99.90
18934;DHT22;9599;53.706;10.384;2024-01-27T11:16:29;7.40;99.90
18934;DHT22;9599;53.706;10.384;2024-01-27T11:18:57;7.40;99.90
18934;DHT22;9599;53.706;10.384;2024-01-27T11:21:26;7.50;99.90
18934;DHT22;9599;53.706;10.384;2024-01-27T11:23:54;7.40;99.90
18934;DHT22;9599;53.706;10.384;2024-01-27T11:26:23;7.50;99.90
18934;DHT22;9599;53.706;10.384;2024-01-27T11:28:52;7.60;99.90
18934;DHT22;9599;53.706;10.384;2024-01-27T11:31:21;7.60;99.90
18934;DHT22;9599;53.706;10.384;2024-01-27T11:33:50;7.60;99.90
18934;DHT22;9599;53.706;10.384;2024-01-27T11:36:22;7.80;99.90
18934;DHT22;9599;53.706;10.384;2024-01-27T11:38:52;7.80;99.90
18934;DHT22;9599;53.706;10.384;2024-01-27T11:41:25;7.80;99.90
18934;DHT22;9599;53.706;10.384;2024-01-27T11:43:54;8.00;99.90
18934;DHT22;9599;53.706;10.384;2024-01-27T11:46:23;8.00;99.90
18934;DHT22;9599;53.706;10.384;2024-01-27T11:48:53;8.00;99.90
18934;DHT22;9599;53.706;10.384;2024-01-27T11:51:21;8.00;99.90
18934;DHT22;9599;53.706;10.384;2024-01-27T11:53:50;7.90;99.90
18934;DHT22;9599;53.706;10.384;2024-01-27T11:56:18;7.90;99.90
18934;DHT22;9599;53.706;10.384;2024-01-27T11:58:49;7.90;99.90
18934;DHT22;9599;53.706;10.384;2024-01-27T12:01:17;7.90;99.90
18934;DHT22;9599;53.706;10.384;2024-01-27T12:03:47;8.00;99.90
18934;DHT22;9599;53.706;10.384;2024-01-27T12:06:18;8.00;99.90
18934;DHT22;9599;53.706;10.384;2024-01-27T12:08:46;8.10;99.90
18934;DHT22;9599;53.706;10.384;2024-01-27T12:11:16;8.10;99.90
18934;DHT22;9599;53.706;10.384;2024-01-27T12:13:51;8.00;99.90
18934;DHT22;9599;53.706;10.384;2024-01-27T12:16:21;8.00;99.90
18934;DHT22;9599;53.706;10.384;2024-01-27T12:18:53;8.00;99.90
18934;DHT22;9599;53.706;10.384;2024-01-27T12:21:22;8.00;99.90
18934;DHT22;9599;53.706;10.384;2024-01-27T12:23:51;8.00;99.90
18934;DHT22;9599;53.706;10.384;2024-01-27T12:26:20;8.00;99.90
18934;DHT22;9599;53.706;10.384;2024-01-27T12:28:49;8.00;99.90
18934;DHT22;9599;53.706;10.384;2024-01-27T12:31:17;8.10;99.90
18934;DHT22;9599;53.706;10.384;2024-01-27T12:33:49;8.10;99.90
18934;DHT22;9599;53.706;10.384;2024-01-27T12:36:20;8.10;99.90
18934;DHT22;9599;53.706;10.384;2024-01-27T12:38:53;8.10;99.90
18934;DHT22;9599;53.706;10.384;2024-01-27T12:41:21;8.00;99.90
18934;DHT22;9599;53.706;10.384;2024-01-27T12:43:49;8.00;99.90
18934;DHT22;9599;53.706;10.384;2024-01-27T12:46:17;8.00;99.90
18934;DHT22;9599;53.706;10.384;2024-01-27T12:48:46;8.00;99.90
18934;DHT22;9599;53.706;10.384;2024-01-27T12:51:14;8.10;99.90
18934;DHT22;9599;53.706;10.384;2024-01-27T12:53:43;8.20;99.90
18934;DHT22;9599;53.706;10.384;2024-01-27T12:56:13;8.20;99.90
18934;DHT22;9599;53.706;10.384;2024-01-27T12:58:42;8.20;99.90
18934;DHT22;9599;53.706;10.384;2024-01-27T13:01:10;8.20;99.90
18934;DHT22;9599;53.706;10.384;2024-01-27T13:03:38;8.10;99.90
18934;DHT22;9599;53.706;10.384;2024-01-27T13:06:11;8.10;99.90
18934;DHT22;9599;53.706;10.384;2024-01-27T13:08:40;8.10;99.90
18934;DHT22;9599;53.706;10.384;2024-01-27T13:11:10;8.10;99.90
18934;DHT22;9599;53.706;10.384;2024-01-27T13:13:40;8.10;99.90
18934;DHT22;9599;53.706;10.384;2024-01-27T13:16:09;8.10;99.90
18934;DHT22;9599;53.706;10.384;2024-01-27T13:18:37;8.20;99.90
18934;DHT22;9599;53.706;10.384;2024-01-27T13:21:05;8.10;99.90
18934;DHT22;9599;53.706;10.384;2024-01-27T13:23:34;8.10;99.90
18934;DHT22;9599;53.706;10.384;2024-01-27T13:26:02;8.10;99.90
18934;DHT22;9599;53.706;10.384;2024-01-27T13:28:45;8.10;99.90
18934;DHT22;9599;53.706;10.384;2024-01-27T13:31:16;8.20;99.90
18934;DHT22;9599;53.706;10.384;2024-01-27T13:33:44;8.10;99.90
18934;DHT22;9599;53.706;10.384;2024-01-27T13:36:13;8.10;99.90
18934;DHT22;9599;53.706;10.384;2024-01-27T13:38:41;8.20;99.90
18934;DHT22;9599;53.706;10.384;2024-01-27T13:41:10;8.20;99.90
18934;DHT22;9599;53.706;10.384;2024-01-27T13:43:38;8.20;99.90
18934;DHT22;9599;53.706;10.384;2024-01-27T13:46:07;8.30;99.90
18934;DHT22;9599;53.706;10.384;2024-01-27T13:48:35;8.20;99.90
18934;DHT22;9599;53.706;10.384;2024-01-27T13:51:04;8.20;99.90
18934;DHT22;9599;53.706;10.384;2024-01-27T13:53:32;8.20;99.90
18934;DHT22;9599;53.706;10.384;2024-01-27T13:56:12;8.20;99.90
18934;DHT22;9599;53.706;10.384;2024-01-27T13:58:41;8.20;99.90
18934;DHT22;9599;53.706;10.384;2024-01-27T14:01:11;8.20;99.90
18934;DHT22;9599;53.706;10.384;2024-01-27T14:03:39;8.20;99.90
18934;DHT22;9599;53.706;10.384;2024-01-27T14:06:07;8.20;99.90
18934;DHT22;9599;53.706;10.384;2024-01-27T14:08:40;8.20;99.90
18934;DHT22;9599;53.706;10.384;2024-01-27T14:11:08;8.20;99.90
18934;DHT22;9599;53.706;10.384;2024-01-27T14:13:36;8.10;99.90
18934;DHT22;9599;53.706;10.384;2024-01-27T14:16:04;8.20;99.90
18934;DHT22;9599;53.706;10.384;2024-01-27T14:18:34;8.20;99.90
18934;DHT22;9599;53.706;10.384;2024-01-27T14:21:02;8.20;99.90
18934;DHT22;9599;53.706;10.384;2024-01-27T14:23:30;8.30;99.90
18934;DHT22;9599;53.706;10.384;2024-01-27T14:25:59;8.30;99.90
18934;DHT22;9599;53.706;10.384;2024-01-27T14:28:27;8.20;99.90
18934;DHT22;9599;53.706;10.384;2024-01-27T14:30:55;8.20;99.90
18934;DHT22;9599;53.706;10.384;2024-01-27T14:33:23;8.20;99.90
18934;DHT22;9599;53.706;10.384;2024-01-27T14:35:52;8.20;99.90
18934;DHT22;9599;53.706;10.384;2024-01-27T14:38:23;8.20;99.90
18934;DHT22;9599;53.706;10.384;2024-01-27T14:40:51;8.20;99.90
18934;DHT22;9599;53.706;10.384;2024-01-27T14:43:19;8.20;99.90
18934;DHT22;9599;53.706;10.384;2024-01-27T14:45:48;8.20;99.90
18934;DHT22;9599;53.706;10.384;2024-01-27T14:48:16;8.10;99.90
18934;DHT22;9599;53.706;10.384;2024-01-27T14:50:49;8.10;99.90
18934;DHT22;9599;53.706;10.384;2024-01-27T14:53:22;8.00;99.90
18934;DHT22;9599;53.706;10.384;2024-01-27T14:55:50;8.00;99.90
18934;DHT22;9599;53.706;10.384;2024-01-27T14:58:18;8.00;99.90
18934;DHT22;9599;53.706;10.384;2024-01-27T15:00:46;8.00;99.90
18934;DHT22;9599;53.706;10.384;2024-01-27T15:03:20;8.00;99.90
18934;DHT22;9599;53.706;10.384;2024-01-27T15:05:49;8.00;99.90
18934;DHT22;9599;53.706;10.384;2024-01-27T15:08:18;7.90;99.90
18934;DHT22;9599;53.706;10.384;2024-01-27T15:10:48;7.90;99.90
18934;DHT22;9599;53.706;10.384;2024-01-27T15:13:16;7.80;99.90
18934;DHT22;9599;53.706;10.384;2024-01-27T15:15:47;7.80;99.90
18934;DHT22;9599;53.706;10.384;2024-01-27T15:18:15;7.80;99.90
18934;DHT22;9599;53.706;10.384;2024-01-27T15:20:46;7.70;99.90
18934;DHT22;9599;53.706;10.384;2024-01-27T15:23:14;7.60;99.90
18934;DHT22;9599;53.706;10.384;2024-01-27T15:25:43;7.60;99.90
18934;DHT22;9599;53.706;10.384;2024-01-27T15:28:12;7.50;99.90
18934;DHT22;9599;53.706;10.384;2024-01-27T15:30:40;7.40;99.90
18934;DHT22;9599;53.706;10.384;2024-01-27T15:33:09;7.40;99.90
18934;DHT22;9599;53.706;10.384;2024-01-27T15:35:37;7.30;99.90
18934;DHT22;9599;53.706;10.384;2024-01-27T15:38:07;7.40;99.90
18934;DHT22;9599;53.706;10.384;2024-01-27T15:40:35;7.20;99.90
18934;DHT22;9599;53.706;10.384;2024-01-27T15:43:03;7.20;99.90
18934;DHT22;9599;53.706;10.384;2024-01-27T15:45:34;7.20;99.90
18934;DHT22;9599;53.706;10.384;2024-01-27T15:48:02;7.00;99.90
18934;DHT22;9599;53.706;10.384;2024-01-27T15:50:30;7.00;99.90
18934;DHT22;9599;53.706;10.384;2024-01-27T15:53:00;6.80;99.90
18934;DHT22;9599;53.706;10.384;2024-01-27T15:55:30;6.70;99.90